sensor_id;sensor_type;location;lat;lon;timestamp;temperature;humidity
67769;DHT22;54569;52.018;5.584;2023-02-15T00:00:21;4.00;69.60
67769;DHT22;54569;52.018;5.584;2023-02-15T00:02:46;3.90;69.70
67769;DHT22;54569;52.018;5.584;2023-02-15T00:05:12;3.90;69.70
67769;DHT22;54569;52.018;5.584;2023-02-15T00:07:38;3.90;69.80
67769;DHT22;54569;52.018;5.584;2023-02-15T00:10:04;3.90;70.00
67769;DHT22;54569;52.018;5.584;2023-02-15T00:12:30;3.90;69.90
67769;DHT22;54569;52.018;5.584;2023-02-15T00:14:56;3.80;69.80
67769;DHT22;54569;52.018;5.584;2023-02-15T00:17:21;3.80;69.90
67769;DHT22;54569;52.018;5.584;2023-02-15T00:19:47;3.70;69.90
67769;DHT22;54569;52.018;5.584;2023-02-15T00:22:12;3.70;70.10
67769;DHT22;54569;52.018;5.584;2023-02-15T00:24:38;3.70;70.20
67769;DHT22;54569;52.018;5.584;2023-02-15T00:27:04;3.70;70.10
67769;DHT22;54569;52.018;5.584;2023-02-15T00:29:30;3.70;70.20
67769;DHT22;54569;52.018;5.584;2023-02-15T00:31:55;3.60;70.30
67769;DHT22;54569;52.018;5.584;2023-02-15T00:34:24;3.60;70.40
67769;DHT22;54569;52.018;5.584;2023-02-15T00:36:50;3.50;70.40
67769;DHT22;54569;52.018;5.584;2023-02-15T00:39:17;3.50;70.40
67769;DHT22;54569;52.018;5.584;2023-02-15T00:41:43;3.50;70.50
67769;DHT22;54569;52.018;5.584;2023-02-15T00:44:09;3.50;70.50
67769;DHT22;54569;52.018;5.584;2023-02-15T00:46:35;3.50;70.60
67769;DHT22;54569;52.018;5.584;2023-02-15T00:49:02;3.50;70.40
67769;DHT22;54569;52.018;5.584;2023-02-15T00:51:28;3.50;70.40
67769;DHT22;54569;52.018;5.584;2023-02-15T00:53:54;3.50;71.00
67769;DHT22;54569;52.018;5.584;2023-02-15T00:56:20;3.40;70.30
67769;DHT22;54569;52.018;5.584;2023-02-15T00:58:46;3.40;70.30
67769;DHT22;54569;52.018;5.584;2023-02-15T01:01:15;3.40;70.30
67769;DHT22;54569;52.018;5.584;2023-02-15T01:03:41;3.40;70.40
67769;DHT22;54569;52.018;5.584;2023-02-15T01:06:08;3.40;70.50
67769;DHT22;54569;52.018;5.584;2023-02-15T01:08:34;3.40;70.60
67769;DHT22;54569;52.018;5.584;2023-02-15T01:11:05;3.30;70.60
67769;DHT22;54569;52.018;5.584;2023-02-15T01:13:31;3.40;70.90
67769;DHT22;54569;52.018;5.584;2023-02-15T01:15:57;3.30;70.90
67769;DHT22;54569;52.018;5.584;2023-02-15T01:18:22;3.30;71.00
67769;DHT22;54569;52.018;5.584;2023-02-15T01:20:49;3.30;71.00
67769;DHT22;54569;52.018;5.584;2023-02-15T01:23:15;3.30;71.10
67769;DHT22;54569;52.018;5.584;2023-02-15T01:25:40;3.40;71.10
67769;DHT22;54569;52.018;5.584;2023-02-15T01:28:06;3.40;71.00
67769;DHT22;54569;52.018;5.584;2023-02-15T01:30:32;3.40;71.00
67769;DHT22;54569;52.018;5.584;2023-02-15T01:32:59;3.30;70.90
67769;DHT22;54569;52.018;5.584;2023-02-15T01:35:27;3.30;70.80
67769;DHT22;54569;52.018;5.584;2023-02-15T01:37:54;3.30;71.00
67769;DHT22;54569;52.018;5.584;2023-02-15T01:40:20;3.30;71.10
67769;DHT22;54569;52.018;5.584;2023-02-15T01:42:54;3.20;71.00
67769;DHT22;54569;52.018;5.584;2023-02-15T01:48:06;3.20;71.30
67769;DHT22;54569;52.018;5.584;2023-02-15T01:50:39;3.10;71.10
67769;DHT22;54569;52.018;5.584;2023-02-15T01:53:16;3.10;71.30
67769;DHT22;54569;52.018;5.584;2023-02-15T01:55:48;3.10;71.40
67769;DHT22;54569;52.018;5.584;2023-02-15T01:58:15;3.10;71.30
67769;DHT22;54569;52.018;5.584;2023-02-15T02:00:42;3.10;71.50
67769;DHT22;54569;52.018;5.584;2023-02-15T02:03:08;3.10;71.60
67769;DHT22;54569;52.018;5.584;2023-02-15T02:05:34;3.20;71.80
67769;DHT22;54569;52.018;5.584;2023-02-15T02:08:01;3.20;71.90
67769;DHT22;54569;52.018;5.584;2023-02-15T02:10:27;3.20;71.70
67769;DHT22;54569;52.018;5.584;2023-02-15T02:12:58;3.20;71.70
67769;DHT22;54569;52.018;5.584;2023-02-15T02:15:46;3.20;71.40
67769;DHT22;54569;52.018;5.584;2023-02-15T02:35:11;3.00;72.20
67769;DHT22;54569;52.018;5.584;2023-02-15T02:38:07;3.00;72.00
67769;DHT22;54569;52.018;5.584;2023-02-15T02:40:55;3.00;72.60
67769;DHT22;54569;52.018;5.584;2023-02-15T02:43:34;3.00;76.00
67769;DHT22;54569;52.018;5.584;2023-02-15T02:46:17;2.90;72.50
67769;DHT22;54569;52.018;5.584;2023-02-15T02:48:45;3.00;72.40
67769;DHT22;54569;52.018;5.584;2023-02-15T02:51:12;3.00;76.70
67769;DHT22;54569;52.018;5.584;2023-02-15T02:53:41;2.90;72.80
67769;DHT22;54569;52.018;5.584;2023-02-15T02:56:21;2.90;72.30
67769;DHT22;54569;52.018;5.584;2023-02-15T02:58:53;2.90;72.00
67769;DHT22;54569;52.018;5.584;2023-02-15T03:01:23;2.90;72.10
67769;DHT22;54569;52.018;5.584;2023-02-15T03:04:00;2.90;72.40
67769;DHT22;54569;52.018;5.584;2023-02-15T03:06:39;3.00;73.10
67769;DHT22;54569;52.018;5.584;2023-02-15T03:09:14;2.90;72.40
67769;DHT22;54569;52.018;5.584;2023-02-15T03:11:43;2.90;72.40
67769;DHT22;54569;52.018;5.584;2023-02-15T03:14:10;2.90;72.40
67769;DHT22;54569;52.018;5.584;2023-02-15T03:16:38;2.90;72.40
67769;DHT22;54569;52.018;5.584;2023-02-15T03:19:10;2.90;72.50
67769;DHT22;54569;52.018;5.584;2023-02-15T03:21:49;2.90;72.50
67769;DHT22;54569;52.018;5.584;2023-02-15T03:27:24;2.90;73.00
67769;DHT22;54569;52.018;5.584;2023-02-15T03:29:58;2.90;72.60
67769;DHT22;54569;52.018;5.584;2023-02-15T03:32:26;2.80;72.50
67769;DHT22;54569;52.018;5.584;2023-02-15T03:34:54;2.80;72.50
67769;DHT22;54569;52.018;5.584;2023-02-15T03:37:34;2.80;72.70
67769;DHT22;54569;52.018;5.584;2023-02-15T03:40:20;2.80;72.80
67769;DHT22;54569;52.018;5.584;2023-02-15T03:43:17;2.80;73.20
67769;DHT22;54569;52.018;5.584;2023-02-15T03:45:47;2.80;73.10
67769;DHT22;54569;52.018;5.584;2023-02-15T03:48:27;2.80;72.90
67769;DHT22;54569;52.018;5.584;2023-02-15T03:50:58;2.80;73.20
67769;DHT22;54569;52.018;5.584;2023-02-15T03:53:45;2.80;73.20
67769;DHT22;54569;52.018;5.584;2023-02-15T03:56:12;2.80;73.10
67769;DHT22;54569;52.018;5.584;2023-02-15T03:58:37;2.80;73.00
67769;DHT22;54569;52.018;5.584;2023-02-15T04:01:34;2.80;73.10
67769;DHT22;54569;52.018;5.584;2023-02-15T04:04:17;2.80;73.80
67769;DHT22;54569;52.018;5.584;2023-02-15T04:06:43;2.80;73.10
67769;DHT22;54569;52.018;5.584;2023-02-15T04:09:09;2.80;73.30
67769;DHT22;54569;52.018;5.584;2023-02-15T04:11:53;2.80;73.00
67769;DHT22;54569;52.018;5.584;2023-02-15T04:14:19;2.80;73.40
67769;DHT22;54569;52.018;5.584;2023-02-15T04:17:08;2.80;73.30
67769;DHT22;54569;52.018;5.584;2023-02-15T04:19:34;2.70;73.20
67769;DHT22;54569;52.018;5.584;2023-02-15T04:22:18;2.70;73.30
67769;DHT22;54569;52.018;5.584;2023-02-15T04:25:03;2.80;73.30
67769;DHT22;54569;52.018;5.584;2023-02-15T04:27:36;2.80;73.60
67769;DHT22;54569;52.018;5.584;2023-02-15T04:30:03;2.80;74.00
67769;DHT22;54569;52.018;5.584;2023-02-15T04:32:28;2.90;73.30
67769;DHT22;54569;52.018;5.584;2023-02-15T04:34:54;2.80;73.20
67769;DHT22;54569;52.018;5.584;2023-02-15T04:37:20;2.80;73.20
67769;DHT22;54569;52.018;5.584;2023-02-15T04:39:45;2.80;73.30
67769;DHT22;54569;52.018;5.584;2023-02-15T04:42:11;2.80;73.10
67769;DHT22;54569;52.018;5.584;2023-02-15T04:44:37;2.80;73.50
67769;DHT22;54569;52.018;5.584;2023-02-15T04:47:03;2.80;73.60
67769;DHT22;54569;52.018;5.584;2023-02-15T04:49:28;2.80;73.80
67769;DHT22;54569;52.018;5.584;2023-02-15T04:51:54;2.80;73.90
67769;DHT22;54569;52.018;5.584;2023-02-15T04:54:20;2.70;73.70
67769;DHT22;54569;52.018;5.584;2023-02-15T04:56:46;2.80;73.60
67769;DHT22;54569;52.018;5.584;2023-02-15T04:59:12;2.80;73.60
67769;DHT22;54569;52.018;5.584;2023-02-15T05:01:38;2.70;73.50
67769;DHT22;54569;52.018;5.584;2023-02-15T05:04:04;2.70;73.50
67769;DHT22;54569;52.018;5.584;2023-02-15T05:06:30;2.70;73.40
67769;DHT22;54569;52.018;5.584;2023-02-15T05:08:55;2.70;73.30
67769;DHT22;54569;52.018;5.584;2023-02-15T05:11:24;2.70;73.40
67769;DHT22;54569;52.018;5.584;2023-02-15T05:13:50;2.60;73.50
67769;DHT22;54569;52.018;5.584;2023-02-15T05:16:16;2.60;73.50
67769;DHT22;54569;52.018;5.584;2023-02-15T05:18:41;2.60;73.30
67769;DHT22;54569;52.018;5.584;2023-02-15T05:21:07;2.60;73.50
67769;DHT22;54569;52.018;5.584;2023-02-15T05:23:33;2.60;73.60
67769;DHT22;54569;52.018;5.584;2023-02-15T05:25:58;2.50;73.80
67769;DHT22;54569;52.018;5.584;2023-02-15T05:28:56;2.60;73.90
67769;DHT22;54569;52.018;5.584;2023-02-15T05:31:22;2.50;74.50
67769;DHT22;54569;52.018;5.584;2023-02-15T05:33:48;2.50;74.30
67769;DHT22;54569;52.018;5.584;2023-02-15T05:36:13;2.50;73.70
67769;DHT22;54569;52.018;5.584;2023-02-15T05:38:39;2.50;73.80
67769;DHT22;54569;52.018;5.584;2023-02-15T05:41:06;2.50;73.80
67769;DHT22;54569;52.018;5.584;2023-02-15T05:43:33;2.40;73.80
67769;DHT22;54569;52.018;5.584;2023-02-15T05:45:59;2.50;73.60
67769;DHT22;54569;52.018;5.584;2023-02-15T05:48:26;2.40;73.80
67769;DHT22;54569;52.018;5.584;2023-02-15T05:51:04;2.50;73.80
67769;DHT22;54569;52.018;5.584;2023-02-15T05:53:32;2.40;74.30
67769;DHT22;54569;52.018;5.584;2023-02-15T05:55:58;2.50;74.30
67769;DHT22;54569;52.018;5.584;2023-02-15T05:58:26;2.50;74.30
67769;DHT22;54569;52.018;5.584;2023-02-15T06:00:52;2.50;74.00
67769;DHT22;54569;52.018;5.584;2023-02-15T06:03:18;2.50;73.90
67769;DHT22;54569;52.018;5.584;2023-02-15T06:05:44;2.50;73.90
67769;DHT22;54569;52.018;5.584;2023-02-15T06:08:10;2.40;74.20
67769;DHT22;54569;52.018;5.584;2023-02-15T06:10:35;2.40;74.60
67769;DHT22;54569;52.018;5.584;2023-02-15T06:13:01;2.40;74.60
67769;DHT22;54569;52.018;5.584;2023-02-15T06:15:27;2.40;74.70
67769;DHT22;54569;52.018;5.584;2023-02-15T06:17:52;2.40;75.20
67769;DHT22;54569;52.018;5.584;2023-02-15T06:20:18;2.30;75.60
67769;DHT22;54569;52.018;5.584;2023-02-15T06:22:44;2.30;74.70
67769;DHT22;54569;52.018;5.584;2023-02-15T06:25:09;2.30;74.60
67769;DHT22;54569;52.018;5.584;2023-02-15T06:27:37;2.20;74.70
67769;DHT22;54569;52.018;5.584;2023-02-15T06:30:04;2.20;74.40
67769;DHT22;54569;52.018;5.584;2023-02-15T06:32:31;2.20;74.60
67769;DHT22;54569;52.018;5.584;2023-02-15T06:34:57;2.20;74.80
67769;DHT22;54569;52.018;5.584;2023-02-15T06:37:22;2.10;74.30
67769;DHT22;54569;52.018;5.584;2023-02-15T06:39:53;2.10;74.40
67769;DHT22;54569;52.018;5.584;2023-02-15T06:42:19;2.10;74.50
67769;DHT22;54569;52.018;5.584;2023-02-15T06:44:46;2.10;75.00
67769;DHT22;54569;52.018;5.584;2023-02-15T06:47:11;2.10;74.70
67769;DHT22;54569;52.018;5.584;2023-02-15T06:49:37;2.10;74.40
67769;DHT22;54569;52.018;5.584;2023-02-15T06:52:03;2.10;74.30
67769;DHT22;54569;52.018;5.584;2023-02-15T06:54:29;2.10;74.30
67769;DHT22;54569;52.018;5.584;2023-02-15T06:56:55;2.00;74.40
67769;DHT22;54569;52.018;5.584;2023-02-15T06:59:21;2.10;74.50
67769;DHT22;54569;52.018;5.584;2023-02-15T07:01:46;2.10;75.00
67769;DHT22;54569;52.018;5.584;2023-02-15T07:04:12;2.10;75.10
67769;DHT22;54569;52.018;5.584;2023-02-15T07:06:38;2.10;74.80
67769;DHT22;54569;52.018;5.584;2023-02-15T07:09:03;2.10;75.00
67769;DHT22;54569;52.018;5.584;2023-02-15T07:11:29;2.20;74.50
67769;DHT22;54569;52.018;5.584;2023-02-15T07:14:14;2.20;74.30
67769;DHT22;54569;52.018;5.584;2023-02-15T07:16:39;2.20;74.80
67769;DHT22;54569;52.018;5.584;2023-02-15T07:19:05;2.30;74.70
67769;DHT22;54569;52.018;5.584;2023-02-15T07:21:33;2.30;74.00
67769;DHT22;54569;52.018;5.584;2023-02-15T07:23:59;2.30;74.10
67769;DHT22;54569;52.018;5.584;2023-02-15T07:26:25;2.40;74.00
67769;DHT22;54569;52.018;5.584;2023-02-15T07:28:50;2.50;73.70
67769;DHT22;54569;52.018;5.584;2023-02-15T07:31:16;2.50;74.00
67769;DHT22;54569;52.018;5.584;2023-02-15T07:33:42;2.60;73.60
67769;DHT22;54569;52.018;5.584;2023-02-15T07:36:08;2.70;73.30
67769;DHT22;54569;52.018;5.584;2023-02-15T07:38:39;2.90;73.00
67769;DHT22;54569;52.018;5.584;2023-02-15T07:41:11;3.00;73.50
67769;DHT22;54569;52.018;5.584;2023-02-15T07:43:40;3.20;72.70
67769;DHT22;54569;52.018;5.584;2023-02-15T07:46:09;3.40;72.60
67769;DHT22;54569;52.018;5.584;2023-02-15T07:48:36;3.60;72.00
67769;DHT22;54569;52.018;5.584;2023-02-15T07:51:03;3.80;71.70
67769;DHT22;54569;52.018;5.584;2023-02-15T07:53:30;4.50;71.50
67769;DHT22;54569;52.018;5.584;2023-02-15T07:55:59;5.60;70.20
67769;DHT22;54569;52.018;5.584;2023-02-15T07:58:25;6.70;67.50
67769;DHT22;54569;52.018;5.584;2023-02-15T08:01:11;7.70;65.20
67769;DHT22;54569;52.018;5.584;2023-02-15T08:03:37;8.50;63.00
67769;DHT22;54569;52.018;5.584;2023-02-15T08:06:03;9.00;61.50
67769;DHT22;54569;52.018;5.584;2023-02-15T08:08:28;9.50;60.30
67769;DHT22;54569;52.018;5.584;2023-02-15T08:14:21;10.40;59.60
67769;DHT22;54569;52.018;5.584;2023-02-15T08:16:51;11.00;58.20
67769;DHT22;54569;52.018;5.584;2023-02-15T08:19:23;11.80;56.60
67769;DHT22;54569;52.018;5.584;2023-02-15T08:21:54;12.30;55.60
67769;DHT22;54569;52.018;5.584;2023-02-15T08:24:24;12.80;55.20
67769;DHT22;54569;52.018;5.584;2023-02-15T08:26:51;13.00;54.70
67769;DHT22;54569;52.018;5.584;2023-02-15T08:29:19;13.30;54.50
67769;DHT22;54569;52.018;5.584;2023-02-15T08:31:45;13.60;54.00
67769;DHT22;54569;52.018;5.584;2023-02-15T08:34:15;14.00;54.10
67769;DHT22;54569;52.018;5.584;2023-02-15T08:36:41;14.20;53.80
67769;DHT22;54569;52.018;5.584;2023-02-15T08:39:07;14.50;53.40
67769;DHT22;54569;52.018;5.584;2023-02-15T08:41:37;14.60;53.40
67769;DHT22;54569;52.018;5.584;2023-02-15T08:44:06;15.10;53.20
67769;DHT22;54569;52.018;5.584;2023-02-15T08:46:35;15.80;52.10
67769;DHT22;54569;52.018;5.584;2023-02-15T08:49:02;16.50;51.50
67769;DHT22;54569;52.018;5.584;2023-02-15T08:51:30;17.00;50.70
67769;DHT22;54569;52.018;5.584;2023-02-15T08:53:59;17.40;50.20
67769;DHT22;54569;52.018;5.584;2023-02-15T08:56:29;18.00;49.70
67769;DHT22;54569;52.018;5.584;2023-02-15T08:58:56;18.10;49.50
67769;DHT22;54569;52.018;5.584;2023-02-15T09:01:24;18.50;49.90
67769;DHT22;54569;52.018;5.584;2023-02-15T09:03:51;18.80;49.70
67769;DHT22;54569;52.018;5.584;2023-02-15T09:06:21;19.10;49.40
67769;DHT22;54569;52.018;5.584;2023-02-15T09:08:48;19.50;49.10
67769;DHT22;54569;52.018;5.584;2023-02-15T09:11:24;19.60;49.20
67769;DHT22;54569;52.018;5.584;2023-02-15T09:14:02;19.90;47.30
67769;DHT22;54569;52.018;5.584;2023-02-15T09:16:31;20.10;45.70
67769;DHT22;54569;52.018;5.584;2023-02-15T09:18:58;19.60;49.30
67769;DHT22;54569;52.018;5.584;2023-02-15T09:21:25;18.90;50.70
67769;DHT22;54569;52.018;5.584;2023-02-15T09:23:55;18.50;51.70
67769;DHT22;54569;52.018;5.584;2023-02-15T09:26:23;18.40;51.90
67769;DHT22;54569;52.018;5.584;2023-02-15T09:28:53;18.10;52.50
67769;DHT22;54569;52.018;5.584;2023-02-15T09:31:23;18.30;52.60
67769;DHT22;54569;52.018;5.584;2023-02-15T09:33:49;18.80;51.90
67769;DHT22;54569;52.018;5.584;2023-02-15T09:36:24;19.10;51.20
67769;DHT22;54569;52.018;5.584;2023-02-15T09:39:14;19.00;50.40
67769;DHT22;54569;52.018;5.584;2023-02-15T09:42:04;19.20;46.70
67769;DHT22;54569;52.018;5.584;2023-02-15T09:50:33;20.00;46.50
67769;DHT22;54569;52.018;5.584;2023-02-15T09:53:16;20.30;47.30
67769;DHT22;54569;52.018;5.584;2023-02-15T09:56:02;20.20;48.50
67769;DHT22;54569;52.018;5.584;2023-02-15T10:07:00;20.00;46.00
67769;DHT22;54569;52.018;5.584;2023-02-15T10:09:48;19.90;46.30
67769;DHT22;54569;52.018;5.584;2023-02-15T10:12:31;20.40;46.00
67769;DHT22;54569;52.018;5.584;2023-02-15T10:17:57;21.70;46.20
67769;DHT22;54569;52.018;5.584;2023-02-15T10:26:20;24.20;41.20
67769;DHT22;54569;52.018;5.584;2023-02-15T10:29:09;24.70;41.80
67769;DHT22;54569;52.018;5.584;2023-02-15T10:31:49;25.10;42.60
67769;DHT22;54569;52.018;5.584;2023-02-15T10:34:26;25.70;40.90
67769;DHT22;54569;52.018;5.584;2023-02-15T10:42:35;26.40;40.70
67769;DHT22;54569;52.018;5.584;2023-02-15T10:47:53;26.30;38.60
67769;DHT22;54569;52.018;5.584;2023-02-15T10:53:14;26.60;41.30
67769;DHT22;54569;52.018;5.584;2023-02-15T10:58:42;27.10;40.00
67769;DHT22;54569;52.018;5.584;2023-02-15T11:06:48;27.40;38.20
67769;DHT22;54569;52.018;5.584;2023-02-15T11:09:17;27.90;39.70
67769;DHT22;54569;52.018;5.584;2023-02-15T11:11:50;28.00;40.50
67769;DHT22;54569;52.018;5.584;2023-02-15T11:17:04;28.30;40.00
67769;DHT22;54569;52.018;5.584;2023-02-15T11:19:58;28.30;39.20
67769;DHT22;54569;52.018;5.584;2023-02-15T11:22:30;28.40;31.80
67769;DHT22;54569;52.018;5.584;2023-02-15T11:25:00;28.00;40.30
67769;DHT22;54569;52.018;5.584;2023-02-15T11:27:30;27.80;40.00
67769;DHT22;54569;52.018;5.584;2023-02-15T11:30:10;27.50;40.10
67769;DHT22;54569;52.018;5.584;2023-02-15T11:32:50;26.50;39.60
67769;DHT22;54569;52.018;5.584;2023-02-15T11:35:27;25.80;40.30
67769;DHT22;54569;52.018;5.584;2023-02-15T11:38:18;24.80;41.30
67769;DHT22;54569;52.018;5.584;2023-02-15T11:40:54;23.70;43.70
67769;DHT22;54569;52.018;5.584;2023-02-15T11:43:31;22.50;45.70
67769;DHT22;54569;52.018;5.584;2023-02-15T11:45:59;22.00;46.40
67769;DHT22;54569;52.018;5.584;2023-02-15T11:48:25;21.70;47.10
67769;DHT22;54569;52.018;5.584;2023-02-15T11:50:51;21.30;47.00
67769;DHT22;54569;52.018;5.584;2023-02-15T11:53:19;21.00;47.30
67769;DHT22;54569;52.018;5.584;2023-02-15T11:55:56;20.60;47.30
67769;DHT22;54569;52.018;5.584;2023-02-15T11:58:37;20.30;47.40
67769;DHT22;54569;52.018;5.584;2023-02-15T12:04:44;19.80;46.60
67769;DHT22;54569;52.018;5.584;2023-02-15T12:06:58;19.60;47.60
67769;DHT22;54569;52.018;5.584;2023-02-15T12:12:39;19.00;44.90
67769;DHT22;54569;52.018;5.584;2023-02-15T12:15:30;18.90;48.40
67769;DHT22;54569;52.018;5.584;2023-02-15T12:17:58;18.70;46.30
67769;DHT22;54569;52.018;5.584;2023-02-15T12:20:32;18.50;48.40
67769;DHT22;54569;52.018;5.584;2023-02-15T12:23:02;18.40;48.20
67769;DHT22;54569;52.018;5.584;2023-02-15T12:25:29;18.40;48.10
67769;DHT22;54569;52.018;5.584;2023-02-15T12:27:58;18.40;48.10
67769;DHT22;54569;52.018;5.584;2023-02-15T12:30:31;18.20;48.00
67769;DHT22;54569;52.018;5.584;2023-02-15T12:33:03;17.90;48.20
67769;DHT22;54569;52.018;5.584;2023-02-15T12:35:33;17.70;48.50
67769;DHT22;54569;52.018;5.584;2023-02-15T12:40:37;18.10;47.20
67769;DHT22;54569;52.018;5.584;2023-02-15T12:43:04;18.10;47.30
67769;DHT22;54569;52.018;5.584;2023-02-15T12:46:20;18.00;47.30
67769;DHT22;54569;52.018;5.584;2023-02-15T12:48:46;17.60;46.50
67769;DHT22;54569;52.018;5.584;2023-02-15T12:51:14;17.30;48.10
67769;DHT22;54569;52.018;5.584;2023-02-15T12:53:41;17.10;48.40
67769;DHT22;54569;52.018;5.584;2023-02-15T12:56:09;16.90;48.60
67769;DHT22;54569;52.018;5.584;2023-02-15T12:58:38;16.80;48.90
67769;DHT22;54569;52.018;5.584;2023-02-15T13:01:16;16.80;48.80
67769;DHT22;54569;52.018;5.584;2023-02-15T13:04:03;16.80;48.20
67769;DHT22;54569;52.018;5.584;2023-02-15T13:06:32;16.80;48.10
67769;DHT22;54569;52.018;5.584;2023-02-15T13:09:11;16.70;48.80
67769;DHT22;54569;52.018;5.584;2023-02-15T13:11:43;16.60;48.70
67769;DHT22;54569;52.018;5.584;2023-02-15T13:14:25;16.40;49.20
67769;DHT22;54569;52.018;5.584;2023-02-15T13:17:00;16.30;49.10
67769;DHT22;54569;52.018;5.584;2023-02-15T13:19:45;16.00;49.70
67769;DHT22;54569;52.018;5.584;2023-02-15T13:22:47;15.80;49.50
67769;DHT22;54569;52.018;5.584;2023-02-15T13:25:25;15.70;49.50
67769;DHT22;54569;52.018;5.584;2023-02-15T13:27:56;15.60;50.10
67769;DHT22;54569;52.018;5.584;2023-02-15T13:30:34;15.60;50.40
67769;DHT22;54569;52.018;5.584;2023-02-15T13:33:27;15.50;50.40
67769;DHT22;54569;52.018;5.584;2023-02-15T13:39:22;15.30;50.30
67769;DHT22;54569;52.018;5.584;2023-02-15T13:42:24;15.20;50.60
67769;DHT22;54569;52.018;5.584;2023-02-15T13:45:09;15.30;50.50
67769;DHT22;54569;52.018;5.584;2023-02-15T14:04:05;15.00;50.80
67769;DHT22;54569;52.018;5.584;2023-02-15T14:23:51;14.30;52.10
67769;DHT22;54569;52.018;5.584;2023-02-15T14:26:44;14.30;52.20
67769;DHT22;54569;52.018;5.584;2023-02-15T14:32:10;14.30;52.20
67769;DHT22;54569;52.018;5.584;2023-02-15T14:34:55;14.30;52.10
67769;DHT22;54569;52.018;5.584;2023-02-15T14:37:24;14.30;52.20
67769;DHT22;54569;52.018;5.584;2023-02-15T14:40:17;14.20;53.00
67769;DHT22;54569;52.018;5.584;2023-02-15T14:43:24;14.10;52.40
67769;DHT22;54569;52.018;5.584;2023-02-15T14:45:55;14.10;52.50
67769;DHT22;54569;52.018;5.584;2023-02-15T14:48:31;14.10;52.40
67769;DHT22;54569;52.018;5.584;2023-02-15T14:50:59;14.00;52.50
67769;DHT22;54569;52.018;5.584;2023-02-15T14:53:38;13.90;52.70
67769;DHT22;54569;52.018;5.584;2023-02-15T14:58:37;13.80;53.10
67769;DHT22;54569;52.018;5.584;2023-02-15T15:01:10;13.70;53.10
67769;DHT22;54569;52.018;5.584;2023-02-15T15:03:43;13.70;53.20
67769;DHT22;54569;52.018;5.584;2023-02-15T15:06:34;13.70;53.30
67769;DHT22;54569;52.018;5.584;2023-02-15T15:09:27;13.60;53.60
67769;DHT22;54569;52.018;5.584;2023-02-15T15:11:55;13.60;53.70
67769;DHT22;54569;52.018;5.584;2023-02-15T15:14:40;13.60;53.50
67769;DHT22;54569;52.018;5.584;2023-02-15T15:17:09;13.50;53.70
67769;DHT22;54569;52.018;5.584;2023-02-15T15:28:14;13.30;54.10
67769;DHT22;54569;52.018;5.584;2023-02-15T15:35:36;13.00;54.50
67769;DHT22;54569;52.018;5.584;2023-02-15T15:41:17;13.00;54.70
67769;DHT22;54569;52.018;5.584;2023-02-15T15:46:37;12.90;54.80
67769;DHT22;54569;52.018;5.584;2023-02-15T15:49:14;12.90;55.10
67769;DHT22;54569;52.018;5.584;2023-02-15T15:51:41;12.80;54.90
67769;DHT22;54569;52.018;5.584;2023-02-15T15:54:34;12.80;54.90
67769;DHT22;54569;52.018;5.584;2023-02-15T15:57:03;12.80;55.70
67769;DHT22;54569;52.018;5.584;2023-02-15T15:59:31;12.70;55.00
67769;DHT22;54569;52.018;5.584;2023-02-15T16:02:10;12.70;55.10
67769;DHT22;54569;52.018;5.584;2023-02-15T16:04:36;12.70;55.40
67769;DHT22;54569;52.018;5.584;2023-02-15T16:10:20;12.60;55.50
67769;DHT22;54569;52.018;5.584;2023-02-15T16:12:47;12.60;55.80
67769;DHT22;54569;52.018;5.584;2023-02-15T16:15:34;12.50;55.50
67769;DHT22;54569;52.018;5.584;2023-02-15T16:18:01;12.40;55.70
67769;DHT22;54569;52.018;5.584;2023-02-15T16:20:35;12.40;55.70
67769;DHT22;54569;52.018;5.584;2023-02-15T16:23:12;12.40;56.00
67769;DHT22;54569;52.018;5.584;2023-02-15T16:26:35;12.30;56.00
67769;DHT22;54569;52.018;5.584;2023-02-15T16:28:29;12.30;56.10
67769;DHT22;54569;52.018;5.584;2023-02-15T16:31:10;12.20;56.80
67769;DHT22;54569;52.018;5.584;2023-02-15T16:33:38;12.10;56.20
67769;DHT22;54569;52.018;5.584;2023-02-15T16:36:05;12.10;56.30
67769;DHT22;54569;52.018;5.584;2023-02-15T16:41:16;11.90;56.70
67769;DHT22;54569;52.018;5.584;2023-02-15T16:43:45;11.90;57.00
67769;DHT22;54569;52.018;5.584;2023-02-15T16:46:16;11.80;56.80
67769;DHT22;54569;52.018;5.584;2023-02-15T16:48:46;11.80;57.00
67769;DHT22;54569;52.018;5.584;2023-02-15T16:51:25;11.70;57.10
67769;DHT22;54569;52.018;5.584;2023-02-15T16:53:52;11.70;57.40
67769;DHT22;54569;52.018;5.584;2023-02-15T16:56:24;11.60;57.40
67769;DHT22;54569;52.018;5.584;2023-02-15T16:58:52;11.60;57.40
67769;DHT22;54569;52.018;5.584;2023-02-15T17:01:21;11.60;57.60
67769;DHT22;54569;52.018;5.584;2023-02-15T17:03:50;11.50;57.60
67769;DHT22;54569;52.018;5.584;2023-02-15T17:06:26;11.50;57.70
67769;DHT22;54569;52.018;5.584;2023-02-15T17:09:03;11.40;58.00
67769;DHT22;54569;52.018;5.584;2023-02-15T17:11:35;11.30;57.90
67769;DHT22;54569;52.018;5.584;2023-02-15T17:19:02;11.20;58.10
67769;DHT22;54569;52.018;5.584;2023-02-15T17:21:33;11.10;58.20
67769;DHT22;54569;52.018;5.584;2023-02-15T17:24:01;11.10;58.30
67769;DHT22;54569;52.018;5.584;2023-02-15T17:26:35;11.10;58.40
67769;DHT22;54569;52.018;5.584;2023-02-15T17:29:30;11.00;58.40
67769;DHT22;54569;52.018;5.584;2023-02-15T17:31:57;10.90;58.60
67769;DHT22;54569;52.018;5.584;2023-02-15T17:34:50;10.90;58.60
67769;DHT22;54569;52.018;5.584;2023-02-15T17:39:51;10.70;58.80
67769;DHT22;54569;52.018;5.584;2023-02-15T17:42:16;10.70;58.90
67769;DHT22;54569;52.018;5.584;2023-02-15T17:44:42;10.60;59.00
67769;DHT22;54569;52.018;5.584;2023-02-15T17:47:14;10.60;59.10
67769;DHT22;54569;52.018;5.584;2023-02-15T17:49:41;10.50;59.10
67769;DHT22;54569;52.018;5.584;2023-02-15T17:52:12;10.50;59.20
67769;DHT22;54569;52.018;5.584;2023-02-15T17:54:42;10.50;59.30
67769;DHT22;54569;52.018;5.584;2023-02-15T17:57:26;10.40;59.40
67769;DHT22;54569;52.018;5.584;2023-02-15T17:59:53;10.30;59.50
67769;DHT22;54569;52.018;5.584;2023-02-15T18:02:38;10.30;59.60
67769;DHT22;54569;52.018;5.584;2023-02-15T18:05:23;10.30;59.60
67769;DHT22;54569;52.018;5.584;2023-02-15T18:08:14;10.20;59.70
67769;DHT22;54569;52.018;5.584;2023-02-15T18:10:59;10.20;59.80
67769;DHT22;54569;52.018;5.584;2023-02-15T18:13:43;10.10;59.80
67769;DHT22;54569;52.018;5.584;2023-02-15T18:16:19;10.10;59.90
67769;DHT22;54569;52.018;5.584;2023-02-15T18:18:45;10.10;60.10
67769;DHT22;54569;52.018;5.584;2023-02-15T18:21:11;10.00;59.80
67769;DHT22;54569;52.018;5.584;2023-02-15T18:23:38;10.00;59.90
67769;DHT22;54569;52.018;5.584;2023-02-15T18:26:05;10.00;59.90
67769;DHT22;54569;52.018;5.584;2023-02-15T18:28:31;10.00;60.00
67769;DHT22;54569;52.018;5.584;2023-02-15T18:30:57;9.90;60.10
67769;DHT22;54569;52.018;5.584;2023-02-15T18:33:35;9.90;60.10
67769;DHT22;54569;52.018;5.584;2023-02-15T18:36:03;9.90;60.50
67769;DHT22;54569;52.018;5.584;2023-02-15T18:38:29;9.80;60.20
67769;DHT22;54569;52.018;5.584;2023-02-15T18:40:55;9.80;60.30